createdAt,value
2022-10-17T00:00:52.538Z,63.09
2022-10-17T00:03:54.338Z,63.59
2022-10-17T00:06:56.165Z,64.22
2022-10-17T00:09:57.968Z,66.43
2022-10-17T00:12:59.781Z,66.21
2022-10-17T00:16:01.581Z,69.55
2022-10-17T00:19:04.099Z,67.11
2022-10-17T00:22:05.897Z,65.58
2022-10-17T00:25:07.870Z,68.61
2022-10-17T00:28:10.470Z,67.21
2022-10-17T00:31:12.270Z,65.07
2022-10-17T00:34:14.055Z,65.80
2022-10-17T00:37:15.969Z,64.80
2022-10-17T00:40:17.916Z,65.67
2022-10-17T00:43:19.744Z,68.80
2022-10-17T00:46:22.028Z,70.84
2022-10-17T00:49:24.406Z,69.50
2022-10-17T00:52:27.101Z,72.14
2022-10-17T00:55:31.468Z,71.28
2022-10-17T00:58:33.252Z,66.52
2022-10-17T01:01:35.115Z,68.10
2022-10-17T01:04:37.419Z,67.49
2022-10-17T01:07:39.611Z,69.95
2022-10-17T01:10:47.502Z,70.88
2022-10-17T01:13:53.832Z,72.02
2022-10-17T01:16:59.318Z,70.61
2022-10-17T01:20:10.465Z,69.13
2022-10-17T01:23:24.562Z,67.42
2022-10-17T01:26:32.451Z,68.50
2022-10-17T01:29:36.997Z,71.59
2022-10-17T01:32:55.331Z,70.67
2022-10-17T01:36:04.782Z,69.95
2022-10-17T01:39:13.502Z,69.80
2022-10-17T01:42:17.574Z,71.25
2022-10-17T01:45:33.159Z,68.43
2022-10-17T01:48:35.718Z,71.82
2022-10-17T01:51:42.202Z,71.72
2022-10-17T01:54:45.777Z,69.42
2022-10-17T01:57:51.683Z,69.03
2022-10-17T02:00:53.504Z,71.20
2022-10-17T02:03:55.318Z,69.48
2022-10-17T02:06:57.210Z,66.63
2022-10-17T02:09:58.997Z,70.66
2022-10-17T02:13:12.168Z,67.90
2022-10-17T02:16:32.534Z,67.49
2022-10-17T02:19:40.103Z,67.39
2022-10-17T02:22:41.844Z,67.46
2022-10-17T02:25:51.898Z,66.19
2022-10-17T02:28:59.821Z,64.29
2022-10-17T02:32:04.054Z,63.58
2022-10-17T02:35:06.119Z,65.58
2022-10-17T02:38:08.160Z,70.28
2022-10-17T02:41:10.640Z,71.43
2022-10-17T02:44:12.439Z,68.00
2022-10-17T02:47:22.226Z,66.77
2022-10-17T02:53:44.697Z,67.43
2022-10-17T02:56:48.964Z,64.66
2022-10-17T02:59:50.784Z,65.48
2022-10-17T03:02:53.197Z,66.06
2022-10-17T03:05:55.067Z,65.94
2022-10-17T03:08:56.858Z,67.04
2022-10-17T03:11:58.688Z,66.63
2022-10-17T03:15:00.470Z,64.66
2022-10-17T03:18:02.276Z,63.76
2022-10-17T03:21:04.135Z,63.64
2022-10-17T03:24:06.077Z,65.42
2022-10-17T03:27:07.906Z,64.34
2022-10-17T03:30:10.019Z,65.86
2022-10-17T03:33:11.851Z,67.16
2022-10-17T03:36:14.587Z,67.87
2022-10-17T03:39:16.407Z,71.63
2022-10-17T03:42:18.390Z,71.85
2022-10-17T03:45:20.193Z,67.64
2022-10-17T03:48:22.015Z,65.69
2022-10-17T03:51:23.949Z,67.56
2022-10-17T03:54:25.815Z,68.56
2022-10-17T03:57:27.936Z,69.61
2022-10-17T04:00:30.018Z,68.78
2022-10-17T04:03:31.858Z,67.57
2022-10-17T04:06:33.630Z,68.21
2022-10-17T04:09:35.434Z,68.44
2022-10-17T04:12:37.230Z,70.67
2022-10-17T04:15:39.058Z,67.80
2022-10-17T04:18:51.544Z,65.68
2022-10-17T04:22:02.456Z,66.61
2022-10-17T04:25:12.934Z,71.49
2022-10-17T04:28:20.833Z,71.23
2022-10-17T04:31:37.317Z,69.20
2022-10-17T04:34:45.396Z,71.28
2022-10-17T04:37:48.963Z,68.15
2022-10-17T04:40:57.433Z,67.04
2022-10-17T04:44:11.257Z,65.50
2022-10-17T04:47:20.946Z,66.31
2022-10-17T04:50:47.252Z,65.08
2022-10-17T04:53:56.493Z,64.40
2022-10-17T04:57:01.033Z,65.15
2022-10-17T05:03:21.503Z,67.32
2022-10-17T05:06:37.774Z,66.59
2022-10-17T05:10:01.797Z,67.47
2022-10-17T05:13:20.989Z,66.60
2022-10-17T05:16:29.814Z,65.82
2022-10-17T05:19:33.826Z,66.07
2022-10-17T05:22:39.772Z,65.97
2022-10-17T05:25:53.570Z,64.90
2022-10-17T05:29:05.355Z,64.89
2022-10-17T05:32:15.148Z,65.63
2022-10-17T05:35:31.159Z,64.45
2022-10-17T05:38:38.465Z,65.27
2022-10-17T05:41:40.543Z,68.64
2022-10-17T05:44:44.495Z,65.91
2022-10-17T05:47:47.911Z,64.46
2022-10-17T05:50:56.679Z,64.16
2022-10-17T05:54:03.491Z,62.86
2022-10-17T05:57:06.060Z,60.01
2022-10-17T06:00:10.978Z,59.77
2022-10-17T06:06:24.794Z,59.49
2022-10-17T06:09:26.751Z,57.91
2022-10-17T06:12:28.977Z,55.16
2022-10-17T06:15:31.011Z,52.83
2022-10-17T06:18:33.048Z,51.45
2022-10-17T06:21:37.845Z,50.85
2022-10-17T06:24:39.770Z,50.06
2022-10-17T06:27:41.706Z,45.57
2022-10-17T06:30:44.247Z,44.22
2022-10-17T06:33:47.516Z,44.47
2022-10-17T06:36:49.525Z,51.41
2022-10-17T06:39:51.945Z,48.34
2022-10-17T06:42:53.980Z,45.50
2022-10-17T06:49:02.575Z,45.37
2022-10-17T06:52:04.967Z,46.11
2022-10-17T06:55:07.535Z,43.28
2022-10-17T06:58:09.595Z,42.78
2022-10-17T07:01:13.756Z,42.95
2022-10-17T07:04:16.274Z,46.41
2022-10-17T07:07:18.586Z,45.19
2022-10-17T07:10:20.825Z,46.50
2022-10-17T07:13:23.057Z,46.32
2022-10-17T07:16:24.897Z,45.25
2022-10-17T07:19:30.123Z,40.40
2022-10-17T07:22:32.255Z,36.00
2022-10-17T07:25:36.434Z,37.39
2022-10-17T07:28:42.681Z,41.01
2022-10-17T07:31:45.874Z,44.74
2022-10-17T07:34:47.806Z,44.14
2022-10-17T07:37:50.782Z,43.12
2022-10-17T07:40:58.756Z,46.46
2022-10-17T07:44:00.871Z,50.71
2022-10-17T07:47:02.685Z,52.37
2022-10-17T07:50:05.458Z,49.49
2022-10-17T07:53:07.373Z,50.90
2022-10-17T07:56:11.436Z,50.13
2022-10-17T07:59:13.302Z,50.55
2022-10-17T08:02:20.845Z,50.60
2022-10-17T08:05:22.743Z,51.01
2022-10-17T08:08:24.728Z,50.27
2022-10-17T08:11:26.552Z,52.11
2022-10-17T08:14:28.431Z,50.48
2022-10-17T08:17:30.232Z,47.92
2022-10-17T08:20:32.178Z,47.62
2022-10-17T08:23:34.232Z,51.70
2022-10-17T08:26:39.243Z,51.94
2022-10-17T08:29:48.435Z,51.19
2022-10-17T08:32:50.649Z,50.92
2022-10-17T08:35:52.449Z,50.05
2022-10-17T08:38:54.320Z,50.43
2022-10-17T08:42:05.306Z,48.05
2022-10-17T08:45:16.605Z,46.55
2022-10-17T08:48:19.236Z,47.84
2022-10-17T08:51:28.696Z,47.30
2022-10-17T08:54:35.372Z,45.83
2022-10-17T08:57:37.229Z,45.94
2022-10-17T09:00:39.165Z,46.70
2022-10-17T09:03:59.634Z,47.01
2022-10-17T09:07:20.195Z,44.57
2022-10-17T09:10:31.443Z,45.96
2022-10-17T09:13:48.674Z,45.91
2022-10-17T09:16:59.967Z,43.91
2022-10-17T09:20:12.021Z,45.35
2022-10-17T09:23:16.621Z,44.50
2022-10-17T09:26:18.666Z,43.85
2022-10-17T09:29:22.143Z,43.00
2022-10-17T09:32:24.566Z,41.62
2022-10-17T09:35:27.652Z,43.21
2022-10-17T09:38:41.619Z,40.73
2022-10-17T09:41:47.265Z,39.99
2022-10-17T09:44:51.856Z,39.62
2022-10-17T09:47:58.363Z,40.04
2022-10-17T09:51:14.984Z,38.76
2022-10-17T09:54:26.264Z,36.56
2022-10-17T09:57:28.239Z,35.93
2022-10-17T10:00:30.170Z,35.29
2022-10-17T10:03:32.125Z,35.50
2022-10-17T10:06:34.085Z,34.84
2022-10-17T10:09:39.394Z,31.97
2022-10-17T10:12:42.255Z,28.43
2022-10-17T10:15:48.018Z,30.99
2022-10-17T10:18:51.179Z,30.70
2022-10-17T10:22:00.457Z,32.08
2022-10-17T10:25:09.076Z,33.34
2022-10-17T10:28:11.716Z,33.45
2022-10-17T10:31:13.593Z,32.84
2022-10-17T10:34:16.677Z,30.96
2022-10-17T10:37:22.271Z,31.39
2022-10-17T10:40:28.934Z,31.11
2022-10-17T10:43:33.595Z,32.45
2022-10-17T10:46:35.801Z,32.10
2022-10-17T10:49:40.664Z,32.19
2022-10-17T10:52:43.841Z,30.77
2022-10-17T10:55:52.984Z,31.14
2022-10-17T10:59:00.596Z,31.31
2022-10-17T11:02:05.409Z,33.92
2022-10-17T11:05:13.215Z,32.01
2022-10-17T11:08:15.161Z,33.50
2022-10-17T11:11:23.827Z,33.58
2022-10-17T11:14:32.135Z,35.15
2022-10-17T11:17:42.315Z,33.45
2022-10-17T11:20:44.458Z,33.19
2022-10-17T11:23:53.799Z,30.27
2022-10-17T11:26:59.247Z,27.23
2022-10-17T11:30:01.288Z,24.12
2022-10-17T11:33:03.384Z,26.54
2022-10-17T11:36:06.500Z,28.16
2022-10-17T11:39:12.223Z,31.09
2022-10-17T11:42:15.833Z,31.18
2022-10-17T11:45:18.707Z,31.95
2022-10-17T11:48:25.434Z,30.34
2022-10-17T11:54:50.919Z,30.56
2022-10-17T11:58:13.037Z,31.81
2022-10-17T12:01:16.945Z,36.02
2022-10-17T12:04:31.261Z,33.82
2022-10-17T12:10:45.078Z,33.50
2022-10-17T12:13:47.773Z,33.96
2022-10-17T12:16:49.672Z,31.41
2022-10-17T12:19:51.945Z,33.00
2022-10-17T12:23:03.222Z,32.47
2022-10-17T12:26:06.270Z,29.88
2022-10-17T12:29:16.961Z,29.45
2022-10-17T12:32:18.803Z,29.33
2022-10-17T12:35:21.220Z,30.62
2022-10-17T12:38:24.362Z,29.39
2022-10-17T12:41:38.208Z,28.03
2022-10-17T12:44:40.059Z,27.23
2022-10-17T12:47:41.944Z,29.63
2022-10-17T12:51:34.251Z,30.52
2022-10-17T12:54:27.116Z,27.46
2022-10-17T12:57:33.790Z,27.77
2022-10-17T13:00:36.543Z,28.37
2022-10-17T13:03:41.919Z,26.43
2022-10-17T13:06:45.310Z,26.93
2022-10-17T13:09:47.301Z,24.17
2022-10-17T13:12:49.431Z,23.07
2022-10-17T13:15:52.186Z,25.00
2022-10-17T13:18:54.274Z,24.03
2022-10-17T13:22:00.956Z,21.72
2022-10-17T13:25:10.172Z,21.54
2022-10-17T13:28:13.259Z,20.12
2022-10-17T13:31:28.848Z,19.47
2022-10-17T13:34:31.803Z,21.65
2022-10-17T13:37:34.397Z,17.44
2022-10-17T13:40:50.783Z,18.36
2022-10-17T13:43:53.173Z,19.54
2022-10-17T13:46:55.186Z,19.63
2022-10-17T13:49:57.069Z,20.42
2022-10-17T13:53:17.559Z,23.82
2022-10-17T13:56:28.424Z,22.42
2022-10-17T13:59:33.304Z,25.57
2022-10-17T14:02:35.367Z,24.68
2022-10-17T14:05:43.662Z,25.56
2022-10-17T14:08:48.633Z,27.34
2022-10-17T14:12:16.693Z,27.96
2022-10-17T14:15:18.523Z,28.10
2022-10-17T14:18:35.044Z,27.24
2022-10-17T14:21:44.210Z,27.16
2022-10-17T14:24:46.911Z,28.18
2022-10-17T14:28:04.316Z,29.02
2022-10-17T14:31:14.472Z,30.58
2022-10-17T14:34:20.327Z,29.13
2022-10-17T14:37:31.725Z,28.36
2022-10-17T14:40:34.007Z,29.04
2022-10-17T14:43:36.015Z,28.63
2022-10-17T14:46:38.999Z,29.28
2022-10-17T14:49:41.038Z,28.51
2022-10-17T14:52:49.563Z,29.52
2022-10-17T14:55:58.615Z,30.67
2022-10-17T14:59:02.827Z,31.15
2022-10-17T15:02:04.711Z,30.49
2022-10-17T15:05:10.762Z,30.67
2022-10-17T15:08:16.107Z,29.88
2022-10-17T15:11:20.512Z,29.78
2022-10-17T15:14:22.531Z,29.97
2022-10-17T15:17:25.662Z,30.96
2022-10-17T15:20:29.534Z,32.00
2022-10-17T15:23:31.392Z,31.38
2022-10-17T15:26:33.829Z,31.39
2022-10-17T15:29:36.314Z,32.19
2022-10-17T15:32:38.247Z,33.14
2022-10-17T15:35:40.101Z,33.79
2022-10-17T15:38:41.976Z,33.46
2022-10-17T15:41:44.231Z,34.99
2022-10-17T15:44:49.503Z,32.99
2022-10-17T15:47:55.366Z,32.81
2022-10-17T15:50:57.308Z,33.30
2022-10-17T15:54:01.688Z,33.62
2022-10-17T15:57:04.089Z,33.92
2022-10-17T16:00:07.134Z,34.04
2022-10-17T16:03:09.208Z,34.87
2022-10-17T16:06:13.558Z,35.98
2022-10-17T16:09:16.299Z,34.60
2022-10-17T16:12:19.490Z,34.63
2022-10-17T16:15:23.046Z,35.71
2022-10-17T16:18:24.880Z,36.67
2022-10-17T16:21:27.938Z,36.31
2022-10-17T16:24:29.817Z,35.95
2022-10-17T16:27:31.658Z,37.23
2022-10-17T16:30:33.750Z,38.22
2022-10-17T16:33:36.090Z,37.66
2022-10-17T16:36:38.169Z,37.74
2022-10-17T16:39:40.071Z,37.17
2022-10-17T16:42:42.030Z,37.79
2022-10-17T16:45:43.883Z,38.33
2022-10-17T16:48:46.149Z,38.28
2022-10-17T16:51:48.029Z,39.24
2022-10-17T16:54:50.824Z,41.31
2022-10-17T16:57:52.716Z,40.65
2022-10-17T17:00:54.725Z,41.34
2022-10-17T17:03:56.838Z,41.06
2022-10-17T17:06:58.805Z,41.93
2022-10-17T17:10:00.649Z,42.18
2022-10-17T17:13:03.299Z,42.71
2022-10-17T17:16:06.095Z,42.18
2022-10-17T17:19:08.692Z,42.44
2022-10-17T17:22:10.489Z,42.51
2022-10-17T17:25:12.466Z,43.19
2022-10-17T17:28:14.254Z,43.22
2022-10-17T17:31:17.329Z,44.72
2022-10-17T17:34:19.157Z,44.63
2022-10-17T17:37:21.016Z,44.48
2022-10-17T17:40:22.853Z,45.40
2022-10-17T17:43:25.029Z,46.10
2022-10-17T17:46:27.020Z,45.66
2022-10-17T17:49:28.829Z,45.52
2022-10-17T17:52:31.023Z,46.45
2022-10-17T17:55:33.553Z,46.77
2022-10-17T17:58:35.661Z,46.79
2022-10-17T18:01:39.110Z,46.46
2022-10-17T18:04:41.248Z,47.02
2022-10-17T18:07:43.179Z,46.46
2022-10-17T18:10:48.959Z,48.16
2022-10-17T18:13:58.144Z,48.28
2022-10-17T18:17:00.128Z,48.29
2022-10-17T18:20:02.892Z,48.23
2022-10-17T18:23:04.796Z,48.12
2022-10-17T18:26:07.022Z,48.07
2022-10-17T18:29:09.289Z,48.17
2022-10-17T18:32:11.345Z,48.63
2022-10-17T18:35:13.274Z,48.94
2022-10-17T18:38:15.154Z,49.22
2022-10-17T18:41:18.033Z,50.25
2022-10-17T18:44:19.823Z,50.40
2022-10-17T18:47:21.720Z,51.48
2022-10-17T18:50:24.283Z,52.14
2022-10-17T18:53:26.136Z,51.52
2022-10-17T18:56:28.022Z,52.33
2022-10-17T18:59:29.800Z,50.82
2022-10-17T19:02:34.384Z,50.21
2022-10-17T19:05:39.837Z,52.25
2022-10-17T19:08:41.926Z,53.31
2022-10-17T19:11:43.809Z,51.80
2022-10-17T19:14:45.612Z,53.63
2022-10-17T19:17:47.460Z,52.85
2022-10-17T19:20:50.980Z,53.03
2022-10-17T19:23:54.946Z,54.50
2022-10-17T19:26:57.953Z,52.97
2022-10-17T19:29:59.816Z,54.62
2022-10-17T19:33:01.610Z,56.70
2022-10-17T19:36:07.834Z,58.26
2022-10-17T19:39:14.134Z,55.32
2022-10-17T19:42:16.052Z,57.24
2022-10-17T19:45:17.878Z,56.32
2022-10-17T19:48:19.738Z,57.14
2022-10-17T19:51:24.376Z,56.20
2022-10-17T19:54:26.345Z,57.85
2022-10-17T19:57:28.269Z,56.55
2022-10-17T20:00:30.138Z,56.82
2022-10-17T20:03:31.959Z,58.18
2022-10-17T20:06:33.793Z,55.94
2022-10-17T20:09:35.787Z,57.89
2022-10-17T20:12:37.759Z,56.91
2022-10-17T20:15:39.831Z,58.68
2022-10-17T20:18:41.711Z,59.21
2022-10-17T20:21:43.784Z,59.93
2022-10-17T20:24:46.039Z,58.40
2022-10-17T20:27:47.911Z,59.41
2022-10-17T20:30:49.759Z,59.69
2022-10-17T20:33:55.658Z,60.92
2022-10-17T20:36:57.571Z,59.69
2022-10-17T20:40:22.788Z,62.75
2022-10-17T20:43:21.256Z,60.13
2022-10-17T20:46:35.945Z,59.35
2022-10-17T20:49:38.502Z,58.94
2022-10-17T20:52:40.320Z,59.97
2022-10-17T20:55:42.544Z,58.11
2022-10-17T20:58:44.321Z,61.65
2022-10-17T21:01:46.630Z,61.58
2022-10-17T21:04:49.888Z,63.90
2022-10-17T21:07:51.747Z,63.56
2022-10-17T21:10:53.586Z,61.94
2022-10-17T21:13:56.577Z,62.14
2022-10-17T21:17:03.756Z,61.21
2022-10-17T21:20:07.092Z,59.09
2022-10-17T21:23:08.975Z,59.28
2022-10-17T21:26:12.736Z,58.25
2022-10-17T21:29:14.641Z,57.82
2022-10-17T21:32:31.834Z,59.40
2022-10-17T21:35:38.323Z,60.65
2022-10-17T21:38:40.354Z,59.71
2022-10-17T21:41:42.417Z,58.61
2022-10-17T21:44:44.452Z,58.74
2022-10-17T21:48:11.168Z,60.75
2022-10-17T21:51:09.273Z,60.40
2022-10-17T21:54:11.329Z,60.09
2022-10-17T21:57:13.316Z,59.66
2022-10-17T22:00:15.274Z,60.14
2022-10-17T22:07:05.356Z,58.84
2022-10-17T22:10:07.435Z,59.22
2022-10-17T22:13:09.319Z,59.06
2022-10-17T22:16:12.230Z,58.70
2022-10-17T22:19:15.349Z,59.27
2022-10-17T22:22:17.189Z,60.39
2022-10-17T22:25:18.986Z,62.07
2022-10-17T22:28:20.926Z,63.46
2022-10-17T22:31:23.079Z,61.35
2022-10-17T22:34:24.972Z,63.87
2022-10-17T22:37:26.774Z,64.33
2022-10-17T22:40:28.662Z,64.31
2022-10-17T22:43:30.608Z,64.09
2022-10-17T22:46:32.783Z,66.77
2022-10-17T22:49:34.723Z,66.46
2022-10-17T22:52:36.788Z,64.28
2022-10-17T22:55:38.621Z,61.98
2022-10-17T22:58:40.638Z,63.16
2022-10-17T23:01:42.511Z,65.05
2022-10-17T23:04:44.400Z,67.73
2022-10-17T23:07:46.291Z,67.07
2022-10-17T23:10:48.153Z,67.02
2022-10-17T23:13:50.049Z,65.83
2022-10-17T23:16:51.883Z,63.83
2022-10-17T23:19:55.569Z,65.93
2022-10-17T23:22:59.481Z,66.47
2022-10-17T23:26:05.297Z,65.44
2022-10-17T23:29:07.260Z,65.04
2022-10-17T23:32:09.189Z,66.83
2022-10-17T23:35:11.246Z,69.14
2022-10-17T23:38:13.057Z,66.90
2022-10-17T23:41:15.036Z,63.17
2022-10-17T23:44:16.997Z,63.97
2022-10-17T23:47:18.946Z,63.58
2022-10-17T23:50:20.746Z,64.58
2022-10-17T23:53:23.142Z,65.12
2022-10-17T23:56:24.966Z,65.82
2022-10-17T23:59:26.838Z,65.16
